AirNav   Air Wisconsin Up To $57,000 Bonus
 
 972 users online  

MI34 McLaren Greater Lansing Hospital Heliport
Lansing, Michigan, USA

GOING TO LANSING?


FAA INFORMATION EFFECTIVE 07 NOVEMBER 2019

Location

FAA Identifier: MI34
Lat/Long: 42-42-10.1260N 084-33-10.9230W
42-42.168767N 084-33.182050W
42.7028128,-84.5530342
(estimated)
Elevation: 860 ft. / 262 m (estimated)
Variation: 05W (1985)
Time zone: UTC -5 (UTC -4 during Daylight Saving Time)
Zip code: 48910

Heliport Operations

Heliport use: Private use, MEDICAL USE.
Activation date: 01/1975
Control tower: no
ARTCC: CLEVELAND CENTER
FSS: LANSING FLIGHT SERVICE STATION
Attendance: UNATNDD
Wind indicator: yes
Segmented circle: no
Lights: FOR PERIMETER LGTS CALL 517-975-8000 30 MINUTES BEFORE ARRIVAL.

Heliport Communications

WX ASOS at LAN (5 nm N): 119.75 (517-908-8494)
WX AWOS-3 at TEW (10 nm SE): 119.425 (517-676-5607)
WX AWOS-3 at FPK (14 nm SW): 118.075 (517-543-2288)

Nearby radio navigation aids

VOR radial/distance  VOR name  Freq  Var
JXNr356/26.9JACKSON VOR/DME109.6005W
FNTr252/38.8FLINT VORTAC116.9006W
LFDr019/39.6LITCHFIELD VOR/DME111.2005W

Heliport Services

Runway Information

Helipad H1

Dimensions: 75 x 75 ft. / 23 x 23 m
Surface: concrete
Runway edge lights: PERI
GREEN LGTS.
Latitude: 42-42.168767N
Longitude: 084-33.182050W
Elevation: 860.0 ft.
Traffic pattern: leftleft

Heliport Ownership and Management from official FAA records

Ownership: Publicly-owned
Owner: MCLAREN GREATER LANSING HOSPITAL
401 W. GREENLAWN
LANSING, MI 48910
Phone 517-975-6000
Manager: JUAN ROSA
401 W. GREENLAWN
LANSING, MI 48910
Phone (517) 975-7979

Additional Remarks

A52-H1 LAMP POST S AT 54' & TREES AT 102'; TREE SE AT 135'; PARKING LOT W WITH 10' LAMP POST AT 72'.
FOR CD CTC GREAT LAKES APCH AT 269-459-3345, WHEN APCH CLSD CTC CLEVELAND ARTCC AT 440-774-0490

Instrument Procedures

There are no published instrument procedures at MI34.

Some nearby airports with instrument procedures:

KLAN - Capital Region International Airport (5 nm N)
4D0 - Abrams Municipal Airport (9 nm NW)
KTEW - Mason Jewett Field Airport (10 nm SE)
KFPK - Fitch H Beach Airport (14 nm SW)
KRNP - Owosso Community Airport (25 nm NE)
 
Loc | Ops | Rwys | IFR | FBO | Links
Com | Nav | Svcs | Stats | Notes
Area around MI34 (McLaren Greater Lansing Hospital Heliport)
 
Road maps at: MapQuest Bing Google
 
Aerial photo
No photo
 
Sectional chart

 
Airport distance calculator
Flying to McLaren Greater Lansing Hospital Heliport? Find the distance to fly.

From to MI34

Sunrise and sunset
Times for 19-Nov-2019
 Local
(UTC-5)
 Zulu
(UTC)
Morning civil twilight07:0512:05
Sunrise07:3612:36
Sunset17:1122:11
Evening civil twilight17:4222:42

Current date and time
Zulu (UTC)  20-Nov-2019 02:51:59
Local (UTC-5)  19-Nov-2019 21:51:59
 
METAR
KLAN 
5nm N 
200153Z 00000KT 7SM OVC037 03/00 A2993 RMK AO2 SLP144 T00280000
KTEW 
10nm SE 
200236Z AUTO 00000KT 10SM OVC022 04/01 A2994 RMK AO2 T00370006
KFPK 
14nm SW 
200236Z AUTO 00000KT 7SM BKN033 01/M01 A2993 RMK AO2 T00091007
TAF
KLAN 
5nm N 
191740Z 1918/2018 24003KT 5SM BR OVC015 FM192200 VRB04KT 6SM BR OVC020
NOTAMs
Click for the latest NOTAMs
NOTAMs are issued by the DoD/FAA and will open in a separate window not controlled by AirNav.

 

 
 

Would you like to see your business listed on this page?

 If your business provides an interesting product or service to pilots, flight crews, aircraft, or users of the McLaren Greater Lansing Hospital Heliport, you should consider listing it here.  To start the listing process, click on the button below
 
Add a business
 

Other Pages about McLaren Greater Lansing Hospital Heliport

Update a link
 
Copyright © AirNav, LLC. All rights reserved. Privacy Policy  Contact